Share

Beulah, ND (58523)

Mercer County Regional (KHZE) Elev 1814 ft | 47.29 °N, 101.58 °W | Change Station

Current weather conditions updated 20 minutes ago

Clear
Clear
36 °F
Feels Like 29 °F
N
9
Wind Variable Wind from SW
Sunrise 6:51 AM
Sunset 8:41 PM
Moon Waning Gibbous

Today is forecast to be nearly the same temperature as yesterday.

Pressure 29.79 in
Visibility 10.0 miles
Clouds Clear
Windchill 29 °F
Dew Point 32 °F
Humidity 87%
Rainfall 0.00 in
Snow Depth Not available.
UV 0 out of 16
Pollen 9.50 out of 12
Air Quality Not available.
Flu Activity Sporadic
METAR KHZE 191015Z AUTO 22008KT 10SM CLR 02/00 A2979 RMK AO2

More Conditions Fewer Conditions

Pressure 29.79 in
Visibility 10.0 miles
Clouds Clear
Windchill 29 °F
Dew Point 32 °F
Humidity 87%
Rainfall 0.00 in
Snow Depth Not available.
UV 0 out of 16
Pollen 9.50 out of 12
Air Quality Not available.
Flu Activity Sporadic
METAR KHZE 191015Z AUTO 22008KT 10SM CLR 02/00 A2979 RMK AO2

More Conditions Fewer Conditions

10-Day Weather Forecast

Almanac

Astronomy

Apr. 19, 2014 Rise Set
Actual Time 6:51 AM CDT 8:41 PM CDT
Civil Twilight 6:18 AM CDT 9:14 PM CDT
Nautical Twilight 5:38 AM CDT 9:54 PM CDT
Astronomical Twilight 4:55 AM CDT 10:38 PM CDT
Moon 12:37 AM CDT 10:02 AM CDT
Length of Visible Light 14h 55m
Length of Day
13h 50m
Tomorrow will be 3m 12s longer.
Waning Gibbous, 81% of the Moon is Illuminated
Today
Waning Gibbous
Apr 22
Last Quarter
Apr 29
New
May 6
First Quarter
May 14
Full

Today's Extremes

State Highs State Lows

Community

  • Bleeding Hearts
    Bleeding Hearts
  • Sunset Silhouettes
    Sunset Silhouettes
  • FL sunset Perico Isle
    FL sunset Perico Isle
  • Cloudy spring view
    Cloudy spring view
  • Old barn
    Old barn

WunderPhotos

Upload Photos

1,702,678 photos uploaded!

WunderBlogs® & News

Nearby

Snow Depth

Station Depth Elevation
No new snow has been reported.

Coastal Water Temperatures

Place Temperature
No Stations Reporting

Earthquake Activity

City Distance Mag. Time & Date
No recent earthquake activity has been reported nearby.
Minimum magnitude displayed is 2.5.

Nearby Weather Stations

Station Location Temp. Windchill Dew Point Humidity Wind Precip. Elev Updated Type
NDDOT Golden Valley ND 200 MP 131, Golden Valley, ND 41 °F 33 °F 37 °F 84% West  at  17 mph 0.00 in / hr 2164 ft 3:04 AM MDT MADIS
RAWS KNIFE RIVER ND, Stanton, ND 36 °F 32 °F 34 °F 92% South  at  5 mph 0.00 in / hr 1700 ft 3:50 AM MDT MADIS
Rural Oliver County, Hannover, ND 33.1 °F 28 °F 32 °F 94% WNW  at  5.0 mph 0.00 in / hr 2162 ft 5:20 AM CDT Normal
Underwood Boat Landing, Underwood, ND 36.3 °F 36 °F 35 °F 94% SE  at  2.0 mph 0.00 in / hr 1713 ft 5:35 AM CDT Rapid Fire

Show More Stations Show Fewer Stations

What do you think?

We're not finished. Please let us know what you like, what you don't like, and what you are still missing.